createdAt,value
2023-03-29T00:01:56.900Z,4.13
2023-03-29T00:04:27.898Z,6.00
2023-03-29T00:07:04.883Z,4.78
2023-03-29T00:09:36.052Z,7.20
2023-03-29T00:12:07.400Z,4.88
2023-03-29T00:14:40.098Z,6.45
2023-03-29T00:17:13.502Z,8.07
2023-03-29T00:19:46.840Z,6.15
2023-03-29T00:22:20.197Z,5.65
2023-03-29T00:24:50.843Z,5.57
2023-03-29T00:27:21.101Z,5.75
2023-03-29T00:29:54.403Z,5.23
2023-03-29T00:32:24.778Z,5.40
2023-03-29T00:34:56.965Z,6.18
2023-03-29T00:37:37.121Z,6.43
2023-03-29T00:40:12.436Z,6.57
2023-03-29T00:42:48.096Z,6.10
2023-03-29T00:45:23.496Z,6.50
2023-03-29T00:47:57.411Z,4.97
2023-03-29T00:50:32.663Z,4.85
2023-03-29T00:53:10.421Z,4.40
2023-03-29T00:55:45.311Z,5.60
2023-03-29T00:58:20.298Z,6.13
2023-03-29T01:01:02.644Z,4.18
2023-03-29T01:03:38.372Z,5.60
2023-03-29T01:06:11.701Z,5.43
2023-03-29T01:08:51.149Z,3.80
2023-03-29T01:11:27.613Z,4.60
2023-03-29T01:14:02.850Z,4.68
2023-03-29T01:16:34.949Z,4.18
2023-03-29T01:19:05.630Z,5.47
2023-03-29T01:21:42.888Z,4.47
2023-03-29T01:24:42.840Z,4.05
2023-03-29T01:27:22.988Z,4.47
2023-03-29T01:30:00.510Z,4.10
2023-03-29T01:32:37.895Z,3.65
2023-03-29T01:35:16.646Z,5.13
2023-03-29T01:37:50.913Z,4.72
2023-03-29T01:40:21.325Z,4.85
2023-03-29T01:42:59.187Z,3.70
2023-03-29T01:45:41.914Z,4.38
2023-03-29T01:48:17.739Z,4.85
2023-03-29T01:50:54.412Z,7.85
2023-03-29T01:53:31.802Z,3.83
2023-03-29T01:56:09.281Z,5.70
2023-03-29T01:58:44.935Z,7.00
2023-03-29T02:01:22.027Z,6.40
2023-03-29T02:03:55.902Z,4.28
2023-03-29T02:06:30.449Z,4.55
2023-03-29T02:09:05.072Z,4.88
2023-03-29T02:11:37.974Z,5.88
2023-03-29T02:14:08.214Z,3.67
2023-03-29T02:16:42.688Z,4.60
2023-03-29T02:19:17.350Z,4.18
2023-03-29T02:21:53.620Z,4.35
2023-03-29T02:24:27.672Z,4.43
2023-03-29T02:29:30.601Z,3.60
2023-03-29T02:32:13.092Z,4.95
2023-03-29T02:34:47.934Z,6.85
2023-03-29T02:37:22.032Z,5.25
2023-03-29T02:39:54.105Z,4.10
2023-03-29T02:42:29.059Z,5.63
2023-03-29T02:45:02.819Z,6.60
2023-03-29T02:47:41.605Z,8.05
2023-03-29T02:50:12.701Z,8.00
2023-03-29T02:52:48.753Z,7.50
2023-03-29T02:55:21.509Z,5.78
2023-03-29T02:57:54.523Z,6.47
2023-03-29T03:00:25.179Z,6.78
2023-03-29T03:02:59.334Z,4.97
2023-03-29T03:05:31.843Z,6.65
2023-03-29T03:08:11.319Z,6.47
2023-03-29T03:10:41.940Z,7.88
2023-03-29T03:13:12.935Z,7.43
2023-03-29T03:15:43.353Z,6.05
2023-03-29T03:18:16.926Z,8.10
2023-03-29T03:20:58.259Z,5.80
2023-03-29T03:23:29.134Z,8.57
2023-03-29T03:26:01.487Z,7.00
2023-03-29T03:28:32.623Z,7.20
2023-03-29T03:31:02.994Z,6.45
2023-03-29T03:33:37.161Z,9.68
2023-03-29T03:38:38.305Z,6.07
2023-03-29T03:41:10.077Z,7.38
2023-03-29T03:43:41.767Z,5.95
2023-03-29T03:46:12.124Z,6.97
2023-03-29T03:48:45.069Z,6.78
2023-03-29T03:51:15.904Z,9.07
2023-03-29T03:53:46.146Z,7.13
2023-03-29T03:56:17.593Z,7.68
2023-03-29T03:58:47.917Z,11.30
2023-03-29T04:01:27.467Z,8.43
2023-03-29T04:04:00.652Z,6.05
2023-03-29T04:06:31.696Z,6.20
2023-03-29T04:09:02.003Z,7.15
2023-03-29T04:11:38.862Z,6.75
2023-03-29T04:14:14.739Z,5.32
2023-03-29T04:16:44.994Z,6.22
2023-03-29T04:19:19.655Z,5.63
2023-03-29T04:21:51.510Z,6.13
2023-03-29T04:24:22.002Z,9.40
2023-03-29T04:26:52.240Z,6.30
2023-03-29T04:29:22.477Z,6.22
2023-03-29T04:31:52.978Z,9.07
2023-03-29T04:34:25.974Z,7.50
2023-03-29T04:36:56.831Z,5.38
2023-03-29T04:39:32.778Z,3.25
2023-03-29T04:42:03.769Z,5.70
2023-03-29T04:44:34.415Z,6.72
2023-03-29T04:47:04.773Z,7.72
2023-03-29T04:49:37.753Z,7.40
2023-03-29T04:52:08.242Z,6.43
2023-03-29T04:54:39.023Z,8.82
2023-03-29T04:57:10.700Z,7.18
2023-03-29T04:59:40.978Z,10.32
2023-03-29T05:02:13.508Z,9.88
2023-03-29T05:04:46.508Z,6.00
2023-03-29T05:07:18.342Z,6.03
2023-03-29T05:09:48.857Z,3.50
2023-03-29T05:12:22.579Z,6.57
2023-03-29T05:14:52.863Z,5.55
2023-03-29T05:17:23.313Z,6.38
2023-03-29T05:19:56.519Z,6.05
2023-03-29T05:22:27.118Z,7.30
2023-03-29T05:24:57.736Z,7.07
2023-03-29T05:27:28.103Z,10.73
2023-03-29T05:29:58.414Z,10.07
2023-03-29T05:32:29.229Z,6.05
2023-03-29T05:35:02.162Z,8.35
2023-03-29T05:37:34.743Z,9.30
2023-03-29T05:40:10.493Z,9.32
2023-03-29T05:42:42.955Z,7.10
2023-03-29T05:45:14.384Z,6.80
2023-03-29T05:47:44.784Z,8.05
2023-03-29T05:50:17.830Z,7.47
2023-03-29T05:52:55.281Z,4.45
2023-03-29T05:55:27.560Z,10.40
2023-03-29T05:57:57.958Z,6.88
2023-03-29T06:00:30.325Z,8.57
2023-03-29T06:03:10.185Z,6.70
2023-03-29T06:05:51.932Z,8.65
2023-03-29T06:08:22.567Z,10.43
2023-03-29T06:10:53.088Z,8.25
2023-03-29T06:13:23.684Z,6.90
2023-03-29T06:15:53.943Z,6.70
2023-03-29T06:18:24.855Z,7.22
2023-03-29T06:20:58.949Z,8.35
2023-03-29T06:23:33.427Z,9.52
2023-03-29T06:26:03.828Z,10.88
2023-03-29T06:28:34.061Z,8.27
2023-03-29T06:31:05.507Z,10.13
2023-03-29T06:33:37.936Z,7.45
2023-03-29T06:36:11.890Z,9.27
2023-03-29T06:41:15.166Z,12.85
2023-03-29T06:43:45.363Z,10.00
2023-03-29T06:46:17.235Z,10.75
2023-03-29T06:48:48.519Z,10.43
2023-03-29T06:51:23.293Z,9.90
2023-03-29T06:53:53.790Z,10.35
2023-03-29T06:56:24.079Z,8.10
2023-03-29T06:58:54.521Z,7.35
2023-03-29T07:01:24.805Z,6.55
2023-03-29T07:03:57.598Z,8.45
2023-03-29T07:06:30.540Z,6.38
2023-03-29T07:09:07.165Z,6.65
2023-03-29T07:14:08.286Z,5.47
2023-03-29T07:16:39.308Z,3.88
2023-03-29T07:19:09.736Z,7.10
2023-03-29T07:21:43.400Z,6.40
2023-03-29T07:27:00.095Z,5.82
2023-03-29T07:29:33.899Z,9.23
2023-03-29T07:32:04.589Z,6.13
2023-03-29T07:34:37.193Z,5.13
2023-03-29T07:37:10.224Z,5.07
2023-03-29T07:39:40.590Z,6.55
2023-03-29T07:42:13.235Z,5.60
2023-03-29T07:44:43.814Z,6.15
2023-03-29T07:47:14.059Z,4.65
2023-03-29T07:49:45.728Z,5.38
2023-03-29T07:52:18.549Z,4.88
2023-03-29T07:54:48.834Z,5.18
2023-03-29T07:57:19.183Z,9.10
2023-03-29T07:59:49.601Z,6.40
2023-03-29T08:02:19.829Z,6.45
2023-03-29T08:04:50.398Z,6.18
2023-03-29T08:07:24.279Z,7.40
2023-03-29T08:09:54.526Z,7.38
2023-03-29T08:12:25.170Z,9.63
2023-03-29T08:14:55.516Z,5.35
2023-03-29T08:17:25.877Z,11.68
2023-03-29T08:19:56.315Z,7.07
2023-03-29T08:22:29.166Z,6.35
2023-03-29T08:24:59.365Z,5.32
2023-03-29T08:27:29.929Z,7.70
2023-03-29T08:30:03.273Z,5.47
2023-03-29T08:32:36.163Z,5.72
2023-03-29T08:35:09.860Z,6.85
2023-03-29T08:37:44.206Z,5.07
2023-03-29T08:40:23.136Z,5.95
2023-03-29T08:43:08.486Z,40.58
2023-03-29T08:45:55.000Z,55.10
2023-03-29T08:48:32.248Z,14.23
2023-03-29T08:51:09.330Z,7.47
2023-03-29T08:53:49.965Z,5.13
2023-03-29T08:56:25.191Z,7.72
2023-03-29T08:58:57.363Z,6.45
2023-03-29T09:01:35.287Z,5.85
2023-03-29T09:04:09.992Z,5.28
2023-03-29T09:06:43.256Z,4.93
2023-03-29T09:09:20.049Z,6.80
2023-03-29T09:12:07.092Z,5.78
2023-03-29T09:14:49.445Z,5.15
2023-03-29T09:17:32.614Z,5.43
2023-03-29T09:20:11.523Z,5.50
2023-03-29T09:22:51.045Z,5.00
2023-03-29T09:25:36.309Z,6.82
2023-03-29T09:28:22.553Z,4.97
2023-03-29T09:30:57.400Z,5.60
2023-03-29T09:33:30.061Z,5.95
2023-03-29T09:36:05.414Z,8.45
2023-03-29T09:38:42.654Z,7.25
2023-03-29T09:41:24.893Z,5.72
2023-03-29T09:43:57.496Z,5.32
2023-03-29T09:46:32.308Z,6.90
2023-03-29T09:49:03.623Z,6.82
2023-03-29T09:51:36.903Z,5.82
2023-03-29T09:54:10.402Z,4.90
2023-03-29T09:56:43.625Z,6.70
2023-03-29T09:59:15.203Z,15.32
2023-03-29T10:01:49.010Z,22.00
2023-03-29T10:04:21.633Z,6.82
2023-03-29T10:06:55.478Z,8.52
2023-03-29T10:09:27.756Z,10.05
2023-03-29T10:12:04.965Z,6.72
2023-03-29T10:14:38.431Z,4.82
2023-03-29T10:17:17.531Z,8.00
2023-03-29T10:19:53.451Z,8.98
2023-03-29T10:22:27.998Z,8.75
2023-03-29T10:25:00.304Z,17.02
2023-03-29T10:27:37.602Z,4.18
2023-03-29T10:30:15.817Z,9.73
2023-03-29T10:32:46.400Z,6.95
2023-03-29T10:35:27.340Z,6.13
2023-03-29T10:38:00.670Z,13.10
2023-03-29T10:40:33.643Z,9.57
2023-03-29T10:43:17.253Z,6.38
2023-03-29T10:45:51.171Z,9.27
2023-03-29T10:48:22.844Z,6.72
2023-03-29T10:50:54.424Z,5.03
2023-03-29T10:53:28.713Z,6.70
2023-03-29T10:56:15.203Z,5.53
2023-03-29T10:59:14.536Z,4.53
2023-03-29T11:01:54.546Z,5.35
2023-03-29T11:04:34.519Z,5.57
2023-03-29T11:07:25.360Z,4.78
2023-03-29T11:10:03.250Z,4.80
2023-03-29T11:12:40.455Z,5.60
2023-03-29T11:15:30.644Z,8.27
2023-03-29T11:18:18.397Z,6.53
2023-03-29T11:20:51.711Z,7.35
2023-03-29T11:23:35.579Z,5.20
2023-03-29T11:26:15.613Z,10.48
2023-03-29T11:28:53.641Z,6.75
2023-03-29T11:31:39.149Z,4.50
2023-03-29T11:34:30.081Z,4.72
2023-03-29T11:37:06.458Z,5.65
2023-03-29T11:39:47.066Z,5.88
2023-03-29T11:42:21.931Z,5.10
2023-03-29T11:44:58.053Z,5.60
2023-03-29T11:47:35.322Z,5.03
2023-03-29T11:50:13.639Z,5.78
2023-03-29T11:52:51.274Z,7.32
2023-03-29T11:55:26.373Z,6.78
2023-03-29T11:58:01.574Z,4.70
2023-03-29T12:00:38.778Z,5.18
2023-03-29T12:03:16.862Z,4.25
2023-03-29T12:05:51.362Z,5.13
2023-03-29T12:08:27.343Z,5.15
2023-03-29T12:11:07.366Z,3.75
2023-03-29T12:13:43.357Z,4.10
2023-03-29T12:16:19.520Z,13.95
2023-03-29T12:18:55.941Z,4.55
2023-03-29T12:21:28.587Z,4.03
2023-03-29T12:24:02.612Z,5.78
2023-03-29T12:26:49.788Z,5.03
2023-03-29T12:29:36.018Z,4.28
2023-03-29T12:32:24.546Z,4.80
2023-03-29T12:35:08.930Z,4.60
2023-03-29T12:37:48.557Z,7.85
2023-03-29T12:40:21.440Z,4.10
2023-03-29T12:42:55.532Z,6.78
2023-03-29T12:45:36.309Z,4.32
2023-03-29T12:48:07.979Z,5.03
2023-03-29T12:50:50.000Z,4.32
2023-03-29T12:53:25.412Z,4.93
2023-03-29T12:56:12.785Z,6.88
2023-03-29T12:59:11.123Z,3.97
2023-03-29T13:01:43.215Z,4.25
2023-03-29T13:04:20.021Z,3.95
2023-03-29T13:07:07.569Z,4.28
2023-03-29T13:09:50.253Z,5.80
2023-03-29T13:12:27.429Z,4.45
2023-03-29T13:15:01.164Z,4.68
2023-03-29T13:17:45.285Z,3.67
2023-03-29T13:20:33.796Z,5.45
2023-03-29T13:23:24.334Z,13.77
2023-03-29T13:26:13.255Z,14.20
2023-03-29T13:29:03.640Z,10.07
2023-03-29T13:31:39.219Z,6.35
2023-03-29T13:34:28.286Z,18.92
2023-03-29T13:37:09.340Z,7.53
2023-03-29T13:39:53.209Z,4.82
2023-03-29T13:42:28.015Z,5.57
2023-03-29T13:45:17.091Z,5.35
2023-03-29T13:48:02.727Z,4.18
2023-03-29T13:50:42.127Z,3.75
2023-03-29T13:53:18.901Z,4.45
2023-03-29T13:55:56.008Z,4.13
2023-03-29T13:58:37.765Z,3.80
2023-03-29T14:01:14.744Z,3.47
2023-03-29T14:03:48.670Z,3.42
2023-03-29T14:06:25.025Z,4.03
2023-03-29T14:08:56.571Z,4.45
2023-03-29T14:11:32.428Z,3.08
2023-03-29T14:14:08.090Z,3.53
2023-03-29T14:16:40.352Z,3.20
2023-03-29T14:19:17.582Z,3.80
2023-03-29T14:21:48.798Z,3.03
2023-03-29T14:24:24.363Z,4.93
2023-03-29T14:27:00.556Z,4.47
2023-03-29T14:29:34.088Z,5.50
2023-03-29T14:32:14.170Z,5.05
2023-03-29T14:34:44.942Z,4.03
2023-03-29T14:37:16.530Z,3.55
2023-03-29T14:39:46.859Z,3.30
2023-03-29T14:42:23.726Z,3.50
2023-03-29T14:44:54.241Z,3.65
2023-03-29T14:47:29.648Z,3.25
2023-03-29T14:50:02.002Z,4.78
2023-03-29T14:52:34.018Z,4.05
2023-03-29T14:55:05.979Z,3.45
2023-03-29T14:57:39.684Z,3.58
2023-03-29T15:00:31.674Z,6.15
2023-03-29T15:03:04.108Z,4.80
2023-03-29T15:05:39.468Z,3.50
2023-03-29T15:08:12.190Z,3.55
2023-03-29T15:10:45.080Z,4.68
2023-03-29T15:13:24.696Z,3.95
2023-03-29T15:15:59.449Z,4.90
2023-03-29T15:18:35.193Z,5.50
2023-03-29T15:21:06.200Z,4.28
2023-03-29T15:23:42.005Z,3.75
2023-03-29T15:26:16.532Z,5.43
2023-03-29T15:28:55.946Z,5.55
2023-03-29T15:31:29.606Z,4.72
2023-03-29T15:34:10.744Z,7.60
2023-03-29T15:36:43.883Z,5.50
2023-03-29T15:39:16.423Z,6.40
2023-03-29T15:41:48.261Z,5.18
2023-03-29T15:44:25.844Z,4.45
2023-03-29T15:47:00.100Z,7.57
2023-03-29T15:49:30.919Z,8.38
2023-03-29T15:52:01.213Z,6.05
2023-03-29T15:54:33.583Z,9.35
2023-03-29T15:57:06.699Z,6.55
2023-03-29T15:59:39.728Z,4.73
2023-03-29T16:02:16.070Z,4.87
2023-03-29T16:04:46.722Z,4.53
2023-03-29T16:07:19.321Z,5.22
2023-03-29T16:09:49.907Z,4.05
2023-03-29T16:12:20.165Z,3.67
2023-03-29T16:14:55.788Z,4.05
2023-03-29T16:17:26.013Z,8.10
2023-03-29T16:19:57.158Z,8.50
2023-03-29T16:22:30.481Z,6.80
2023-03-29T16:25:00.747Z,7.15
2023-03-29T16:27:31.485Z,7.60
2023-03-29T16:30:04.470Z,5.30
2023-03-29T16:32:34.858Z,9.10
2023-03-29T16:35:05.382Z,5.18
2023-03-29T16:37:35.913Z,6.10
2023-03-29T16:40:08.043Z,8.20
2023-03-29T16:42:38.364Z,9.32
2023-03-29T16:45:15.455Z,11.30
2023-03-29T16:47:46.792Z,6.63
2023-03-29T16:50:19.042Z,7.53
2023-03-29T16:52:51.699Z,5.07
2023-03-29T16:55:22.506Z,5.03
2023-03-29T16:57:53.819Z,7.75
2023-03-29T17:00:27.110Z,5.72
2023-03-29T17:02:57.649Z,9.77
2023-03-29T17:05:31.148Z,4.20
2023-03-29T17:08:05.192Z,4.60
2023-03-29T17:10:36.589Z,5.65
2023-03-29T17:13:07.145Z,8.15
2023-03-29T17:15:40.377Z,5.50
2023-03-29T17:18:10.757Z,4.87
2023-03-29T17:20:42.257Z,4.90
2023-03-29T17:23:13.030Z,6.50
2023-03-29T17:25:43.644Z,5.78
2023-03-29T17:28:14.394Z,4.78
2023-03-29T17:30:47.490Z,5.45
2023-03-29T17:33:20.353Z,5.55
2023-03-29T17:35:52.096Z,3.92
2023-03-29T17:38:22.782Z,5.05
2023-03-29T17:40:56.378Z,4.93
2023-03-29T17:43:26.783Z,7.63
2023-03-29T17:45:59.792Z,6.45
2023-03-29T17:48:33.034Z,5.13
2023-03-29T17:51:03.444Z,6.38
2023-03-29T17:53:33.816Z,6.30
2023-03-29T17:56:04.380Z,6.47
2023-03-29T17:58:34.859Z,6.25
2023-03-29T18:01:12.490Z,5.53
2023-03-29T18:03:43.440Z,5.97
2023-03-29T18:06:13.806Z,5.63
2023-03-29T18:08:44.319Z,8.13
2023-03-29T18:11:19.064Z,4.60
2023-03-29T18:13:53.155Z,5.85
2023-03-29T18:16:26.421Z,7.30
2023-03-29T18:18:56.702Z,5.07
2023-03-29T18:21:28.338Z,5.82
2023-03-29T18:23:58.659Z,6.05
2023-03-29T18:26:28.989Z,5.80
2023-03-29T18:28:59.440Z,6.60
2023-03-29T18:31:33.005Z,6.03
2023-03-29T18:34:03.444Z,7.78
2023-03-29T18:36:34.820Z,6.35
2023-03-29T18:39:06.012Z,5.55
2023-03-29T18:41:38.025Z,4.65
2023-03-29T18:44:08.735Z,8.10
2023-03-29T18:46:53.306Z,6.75
2023-03-29T18:49:25.180Z,5.88
2023-03-29T18:51:58.183Z,6.63
2023-03-29T18:54:31.448Z,9.20
2023-03-29T18:57:04.801Z,10.30
2023-03-29T18:59:36.184Z,13.23
2023-03-29T19:02:09.366Z,8.57
2023-03-29T19:04:43.137Z,8.73
2023-03-29T19:07:13.568Z,11.63
2023-03-29T19:09:44.255Z,14.57
2023-03-29T19:12:14.523Z,9.73
2023-03-29T19:14:44.896Z,11.02
2023-03-29T19:17:20.259Z,23.30
2023-03-29T19:19:53.400Z,15.80
2023-03-29T19:22:23.734Z,33.20
2023-03-29T19:24:55.156Z,30.10
2023-03-29T19:27:25.538Z,17.70
2023-03-29T19:29:55.950Z,22.40
2023-03-29T19:32:28.923Z,20.85
2023-03-29T19:34:59.262Z,21.15
2023-03-29T19:37:32.194Z,28.67
2023-03-29T19:40:02.601Z,30.60
2023-03-29T19:42:32.865Z,27.10
2023-03-29T19:45:04.147Z,30.67
2023-03-29T19:47:37.456Z,35.08
2023-03-29T19:50:08.812Z,29.00
2023-03-29T19:52:39.204Z,27.52
2023-03-29T19:55:11.091Z,28.13
2023-03-29T19:57:42.673Z,29.35
2023-03-29T20:00:14.394Z,26.98
2023-03-29T20:02:49.969Z,23.83
2023-03-29T20:05:21.567Z,22.63
2023-03-29T20:07:51.796Z,18.92
2023-03-29T20:10:22.120Z,17.55
2023-03-29T20:12:52.432Z,15.65
2023-03-29T20:15:25.720Z,16.77
2023-03-29T20:18:00.558Z,17.48
2023-03-29T20:20:32.118Z,16.42
2023-03-29T20:23:05.223Z,14.40
2023-03-29T20:25:36.376Z,14.38
2023-03-29T20:28:06.983Z,21.83
2023-03-29T20:30:38.075Z,16.77
2023-03-29T20:33:11.290Z,14.68
2023-03-29T20:35:41.593Z,17.05
2023-03-29T20:38:11.950Z,15.50
2023-03-29T20:40:43.069Z,16.58
2023-03-29T20:43:18.802Z,15.10
2023-03-29T20:45:53.878Z,17.95
2023-03-29T20:55:12.675Z,13.55
2023-03-29T20:57:43.545Z,13.05
2023-03-29T21:00:15.090Z,12.75
2023-03-29T21:02:45.425Z,12.43
2023-03-29T21:05:16.464Z,12.48
2023-03-29T21:07:48.249Z,10.63
2023-03-29T21:10:23.628Z,15.90
2023-03-29T21:12:54.467Z,11.23
2023-03-29T21:15:27.674Z,9.80
2023-03-29T21:17:58.300Z,10.45
2023-03-29T21:20:28.898Z,11.32
2023-03-29T21:22:59.173Z,11.88
2023-03-29T21:25:32.271Z,11.23
2023-03-29T21:28:02.530Z,11.48
2023-03-29T21:30:32.777Z,11.73
2023-03-29T21:33:03.258Z,8.13
2023-03-29T21:35:34.405Z,10.15
2023-03-29T21:38:04.902Z,10.32
2023-03-29T21:40:39.228Z,10.15
2023-03-29T21:43:09.602Z,11.85
2023-03-29T21:45:39.885Z,11.43
2023-03-29T21:48:10.375Z,10.18
2023-03-29T21:50:41.185Z,9.52
2023-03-29T21:53:11.440Z,12.43
2023-03-29T21:55:44.347Z,9.57
2023-03-29T21:58:14.644Z,10.27
2023-03-29T22:00:45.060Z,9.85
2023-03-29T22:03:16.007Z,9.95
2023-03-29T22:05:46.848Z,10.00
2023-03-29T22:08:20.024Z,9.70
2023-03-29T22:10:55.750Z,12.13
2023-03-29T22:13:29.202Z,11.00
2023-03-29T22:16:01.504Z,9.20
2023-03-29T22:18:44.038Z,15.23
2023-03-29T22:21:17.732Z,12.20
2023-03-29T22:23:50.046Z,10.05
2023-03-29T22:26:27.774Z,11.25
2023-03-29T22:28:58.856Z,11.43
2023-03-29T22:31:32.671Z,13.40
2023-03-29T22:34:03.058Z,9.13
2023-03-29T22:36:34.070Z,10.45
2023-03-29T22:39:04.318Z,11.68
2023-03-29T22:41:37.883Z,12.55
2023-03-29T22:44:08.756Z,8.83
2023-03-29T22:46:39.318Z,8.65
2023-03-29T22:49:09.633Z,8.05
2023-03-29T22:51:39.970Z,8.43
2023-03-29T22:54:10.198Z,12.45
2023-03-29T22:56:43.278Z,11.63
2023-03-29T22:59:13.491Z,9.90
2023-03-29T23:01:43.850Z,11.18
2023-03-29T23:04:14.220Z,8.60
2023-03-29T23:06:44.737Z,8.20
2023-03-29T23:09:16.425Z,8.80
2023-03-29T23:11:49.443Z,8.40
2023-03-29T23:14:19.865Z,8.70
2023-03-29T23:16:50.745Z,7.50
2023-03-29T23:19:21.229Z,12.13
2023-03-29T23:21:52.987Z,10.30
2023-03-29T23:24:23.232Z,9.05
2023-03-29T23:26:56.084Z,13.35
2023-03-29T23:29:26.459Z,10.85
2023-03-29T23:31:56.995Z,8.82
2023-03-29T23:34:27.352Z,9.23
2023-03-29T23:36:57.581Z,7.20
2023-03-29T23:39:28.902Z,8.55
2023-03-29T23:42:01.909Z,10.73
2023-03-29T23:44:32.518Z,10.32
2023-03-29T23:47:02.869Z,9.20
2023-03-29T23:49:33.525Z,8.68
2023-03-29T23:52:03.782Z,7.50
2023-03-29T23:54:34.546Z,10.90
2023-03-29T23:57:07.434Z,8.90
2023-03-29T23:59:38.104Z,8.73
